createdAt,value
2019-01-24T00:00:54.299Z,-4.52
2019-01-24T00:01:54.542Z,-4.47
2019-01-24T00:02:55.493Z,-4.4
2019-01-24T00:03:54.679Z,-4.51
2019-01-24T00:04:54.708Z,-4.43
2019-01-24T00:05:54.243Z,-4.41
2019-01-24T00:06:54.394Z,-4.37
2019-01-24T00:07:55.112Z,-4.44
2019-01-24T00:08:54.369Z,-4.46
2019-01-24T00:09:54.388Z,-4.5
2019-01-24T00:10:56.108Z,-4.53
2019-01-24T00:11:54.660Z,-4.51
2019-01-24T00:12:54.288Z,-4.45
2019-01-24T00:13:54.333Z,-4.46
2019-01-24T00:14:54.383Z,-4.44
2019-01-24T00:15:54.326Z,-4.38
2019-01-24T00:16:54.898Z,-4.42
2019-01-24T00:17:54.297Z,-4.48
2019-01-24T00:18:54.373Z,-4.43
2019-01-24T00:19:54.464Z,-4.41
2019-01-24T00:20:54.298Z,-4.36
2019-01-24T00:21:56.063Z,-4.33
2019-01-24T00:22:54.515Z,-4.35
2019-01-24T00:23:54.920Z,-4.42
2019-01-24T00:24:54.254Z,-4.44
2019-01-24T00:25:54.209Z,-4.35
2019-01-24T00:26:54.233Z,-4.38
2019-01-24T00:27:54.212Z,-4.4
2019-01-24T00:28:54.365Z,-4.39
2019-01-24T00:29:54.893Z,-4.45
2019-01-24T00:30:54.331Z,-4.49
2019-01-24T00:31:54.230Z,-4.56
2019-01-24T00:32:54.319Z,-4.52
2019-01-24T00:33:54.386Z,-4.47
2019-01-24T00:34:54.211Z,-4.43
2019-01-24T00:35:54.447Z,-4.44
2019-01-24T00:36:54.214Z,-4.44
2019-01-24T00:37:54.484Z,-4.49
2019-01-24T00:38:54.388Z,-4.5
2019-01-24T00:39:54.541Z,-4.46
2019-01-24T00:40:54.427Z,-4.41
2019-01-24T00:41:54.703Z,-4.51
2019-01-24T00:42:54.737Z,-4.46
2019-01-24T00:43:54.656Z,-4.47
2019-01-24T00:44:54.459Z,-4.48
2019-01-24T00:45:54.208Z,-4.48
2019-01-24T00:46:54.510Z,-4.42
2019-01-24T00:47:54.512Z,-4.45
2019-01-24T00:48:54.576Z,-4.38
2019-01-24T00:49:55.138Z,-4.38
2019-01-24T00:50:54.916Z,-4.36
2019-01-24T00:51:54.355Z,-4.36
2019-01-24T00:52:54.188Z,-4.47
2019-01-24T00:53:54.682Z,-4.53
2019-01-24T00:54:54.528Z,-4.52
2019-01-24T00:55:54.235Z,-4.51
2019-01-24T00:56:54.251Z,-4.54
2019-01-24T00:57:54.567Z,-4.46
2019-01-24T00:58:54.277Z,-4.5
2019-01-24T00:59:54.203Z,-4.5
2019-01-24T01:00:54.315Z,-4.52
2019-01-24T01:01:54.446Z,-4.61
2019-01-24T01:02:54.224Z,-4.6
2019-01-24T01:03:54.478Z,-4.63
2019-01-24T01:04:54.397Z,-4.6
2019-01-24T01:05:54.326Z,-4.65
2019-01-24T01:06:54.502Z,-4.68
2019-01-24T01:07:54.414Z,-4.63
2019-01-24T01:08:54.186Z,-4.6
2019-01-24T01:09:54.326Z,-4.71
2019-01-24T01:10:54.351Z,-4.7
2019-01-24T01:11:54.194Z,-4.68
2019-01-24T01:12:54.269Z,-4.66
2019-01-24T01:13:54.250Z,-4.71
2019-01-24T01:14:54.325Z,-4.71
2019-01-24T01:15:54.268Z,-4.71
2019-01-24T01:16:54.131Z,-4.71
2019-01-24T01:17:54.155Z,-4.74
2019-01-24T01:18:54.209Z,-4.66
2019-01-24T01:19:54.189Z,-4.63
2019-01-24T01:20:54.172Z,-4.7
2019-01-24T01:21:54.310Z,-4.71
2019-01-24T01:22:54.313Z,-4.74
2019-01-24T01:23:54.135Z,-4.72
2019-01-24T01:24:54.539Z,-4.76
2019-01-24T01:25:54.231Z,-4.78
2019-01-24T01:26:54.173Z,-4.65
2019-01-24T01:27:54.134Z,-4.69
2019-01-24T01:28:55.218Z,-4.67
2019-01-24T01:29:54.238Z,-4.68
2019-01-24T01:30:54.127Z,-4.72
2019-01-24T01:31:54.127Z,-4.73
2019-01-24T01:32:54.153Z,-4.74
2019-01-24T01:33:54.120Z,-4.77
2019-01-24T01:34:54.219Z,-4.74
2019-01-24T01:35:54.127Z,-4.7
2019-01-24T01:36:54.100Z,-4.74
2019-01-24T01:37:54.420Z,-4.88
2019-01-24T01:38:54.152Z,-4.92
2019-01-24T01:39:54.234Z,-5.05
2019-01-24T01:40:54.113Z,-5.12
2019-01-24T01:41:54.678Z,-5.07
2019-01-24T01:42:54.356Z,-5.11
2019-01-24T01:43:54.115Z,-5.09
2019-01-24T01:44:54.145Z,-5.12
2019-01-24T01:45:54.146Z,-5.08
2019-01-24T01:46:54.164Z,-5.09
2019-01-24T01:47:55.836Z,-5.11
2019-01-24T01:48:54.176Z,-5.12
2019-01-24T01:49:54.293Z,-5.11
2019-01-24T01:50:54.097Z,-5.12
2019-01-24T01:51:54.480Z,-5.17
2019-01-24T01:52:54.144Z,-5.14
2019-01-24T01:53:54.297Z,-5.12
2019-01-24T01:54:54.739Z,-5.1
2019-01-24T01:55:54.958Z,-5.12
2019-01-24T01:56:54.244Z,-5.19
2019-01-24T01:57:55.215Z,-5.16
2019-01-24T01:58:54.949Z,-5.27
2019-01-24T01:59:55.309Z,-5.2
2019-01-24T02:00:54.168Z,-5.22
2019-01-24T02:01:54.092Z,-5.21
2019-01-24T02:02:54.619Z,-5.16
2019-01-24T02:03:54.302Z,-5.18
2019-01-24T02:04:54.140Z,-5.16
2019-01-24T02:05:54.128Z,-5.26
2019-01-24T02:06:54.594Z,-5.19
2019-01-24T02:07:54.330Z,-5.17
2019-01-24T02:08:54.091Z,-5.15
2019-01-24T02:09:54.327Z,-5.15
2019-01-24T02:10:54.344Z,-5.18
2019-01-24T02:11:54.366Z,-5.12
2019-01-24T02:12:54.089Z,-5.07
2019-01-24T02:13:54.148Z,-4.93
2019-01-24T02:14:54.358Z,-4.92
2019-01-24T02:15:54.341Z,-4.86
2019-01-24T02:16:54.121Z,-4.82
2019-01-24T02:17:54.136Z,-4.92
2019-01-24T02:18:54.177Z,-5.04
2019-01-24T02:19:54.075Z,-5.06
2019-01-24T02:20:54.529Z,-5.33
2019-01-24T02:21:54.622Z,-5.27
2019-01-24T02:22:54.209Z,-5.19
2019-01-24T02:23:54.061Z,-5.19
2019-01-24T02:24:54.286Z,-5.21
2019-01-24T02:25:54.157Z,-5.14
2019-01-24T02:26:54.035Z,-5.16
2019-01-24T02:27:54.351Z,-5.13
2019-01-24T02:28:54.281Z,-5.12
2019-01-24T02:29:54.359Z,-5.16
2019-01-24T02:30:54.274Z,-5.18
2019-01-24T02:31:54.479Z,-5.18
2019-01-24T02:32:54.646Z,-5.17
2019-01-24T02:33:54.116Z,-5.29
2019-01-24T02:34:54.505Z,-5.24
2019-01-24T02:35:54.058Z,-5.24
2019-01-24T02:36:54.156Z,-5.23
2019-01-24T02:37:54.211Z,-5.22
2019-01-24T02:38:54.147Z,-5.21
2019-01-24T02:39:54.281Z,-5.23
2019-01-24T02:40:54.350Z,-5.25
2019-01-24T02:41:54.343Z,-5.21
2019-01-24T02:42:54.425Z,-5.19
2019-01-24T02:43:54.356Z,-5.11
2019-01-24T02:44:54.418Z,-5.02
2019-01-24T02:45:54.135Z,-4.96
2019-01-24T02:46:54.001Z,-4.96
2019-01-24T02:47:54.606Z,-4.91
2019-01-24T02:48:54.122Z,-4.89
2019-01-24T02:49:54.894Z,-4.83
2019-01-24T02:50:54.322Z,-4.78
2019-01-24T02:51:54.320Z,-4.79
2019-01-24T02:52:54.085Z,-4.79
2019-01-24T02:53:54.454Z,-4.84
2019-01-24T02:54:54.528Z,-4.85
2019-01-24T02:55:54.877Z,-4.8
2019-01-24T02:56:54.054Z,-4.75
2019-01-24T02:57:53.969Z,-4.72
2019-01-24T02:58:54.340Z,-4.68
2019-01-24T02:59:54.286Z,-4.72
2019-01-24T03:00:53.964Z,-4.74
2019-01-24T03:01:53.986Z,-4.68
2019-01-24T03:02:54.167Z,-4.7
2019-01-24T03:03:54.371Z,-4.72
2019-01-24T03:04:57.406Z,-4.7
2019-01-24T03:05:54.044Z,-4.73
2019-01-24T03:06:54.141Z,-4.68
2019-01-24T03:07:54.038Z,-4.66
2019-01-24T03:08:53.943Z,-4.69
2019-01-24T03:09:55.508Z,-4.72
2019-01-24T03:10:54.032Z,-4.75
2019-01-24T03:11:54.066Z,-4.73
2019-01-24T03:12:54.152Z,-4.74
2019-01-24T03:13:53.984Z,-4.76
2019-01-24T03:14:54.068Z,-4.72
2019-01-24T03:15:54.111Z,-4.75
2019-01-24T03:16:54.234Z,-4.7
2019-01-24T03:17:54.046Z,-4.61
2019-01-24T03:18:54.311Z,-4.65
2019-01-24T03:19:54.243Z,-4.65
2019-01-24T03:20:53.954Z,-4.71
2019-01-24T03:21:54.158Z,-4.73
2019-01-24T03:22:54.309Z,-4.68
2019-01-24T03:23:53.982Z,-4.73
2019-01-24T03:24:54.223Z,-4.78
2019-01-24T03:25:54.009Z,-4.85
2019-01-24T03:26:53.950Z,-4.85
2019-01-24T03:27:54.016Z,-4.78
2019-01-24T03:28:54.207Z,-4.77
2019-01-24T03:29:54.081Z,-4.75
2019-01-24T03:30:54.259Z,-4.77
2019-01-24T03:31:54.000Z,-4.78
2019-01-24T03:32:54.439Z,-4.76
2019-01-24T03:33:54.113Z,-4.77
2019-01-24T03:34:54.188Z,-4.77
2019-01-24T03:35:54.203Z,-4.81
2019-01-24T03:36:54.047Z,-4.82
2019-01-24T03:37:53.724Z,-4.81
2019-01-24T03:38:54.466Z,-4.84
2019-01-24T03:39:54.120Z,-4.84
2019-01-24T03:40:54.353Z,-4.82
2019-01-24T03:41:53.983Z,-4.82
2019-01-24T03:42:53.991Z,-4.75
2019-01-24T03:43:53.959Z,-4.75
2019-01-24T03:44:54.181Z,-4.68
2019-01-24T03:45:53.920Z,-4.77
2019-01-24T03:46:53.897Z,-4.73
2019-01-24T03:47:54.020Z,-4.79
2019-01-24T03:48:53.892Z,-4.81
2019-01-24T03:49:54.011Z,-4.84
2019-01-24T03:50:54.249Z,-4.87
2019-01-24T03:51:54.449Z,-4.87
2019-01-24T03:52:54.023Z,-4.85
2019-01-24T03:53:54.254Z,-4.8
2019-01-24T03:54:54.064Z,-4.8
2019-01-24T03:55:54.084Z,-4.8
2019-01-24T03:56:53.988Z,-4.82
2019-01-24T03:57:54.177Z,-4.82
2019-01-24T03:58:54.083Z,-4.83
2019-01-24T03:59:54.311Z,-4.78
2019-01-24T04:00:53.911Z,-4.77
2019-01-24T04:01:53.992Z,-4.8
2019-01-24T04:02:53.905Z,-4.8
2019-01-24T04:03:53.912Z,-4.82
2019-01-24T04:04:53.889Z,-4.81
2019-01-24T04:05:54.115Z,-4.81
2019-01-24T04:06:54.342Z,-4.84
2019-01-24T04:07:54.777Z,-5.04
2019-01-24T04:08:54.121Z,-5.21
2019-01-24T04:09:54.185Z,-5.17
2019-01-24T04:10:54.978Z,-5.17
2019-01-24T04:11:54.187Z,-5.15
2019-01-24T04:12:53.908Z,-5.14
2019-01-24T04:13:54.181Z,-5.22
2019-01-24T04:14:54.370Z,-5.21
2019-01-24T04:15:54.070Z,-5.23
2019-01-24T04:16:54.126Z,-5.29
2019-01-24T04:17:55.237Z,-5.27
2019-01-24T04:18:54.198Z,-5.26
2019-01-24T04:19:54.189Z,-5.33
2019-01-24T04:20:54.354Z,-5.34
2019-01-24T04:21:54.234Z,-5.31
2019-01-24T04:22:53.846Z,-5.31
2019-01-24T04:23:55.639Z,-5.31
2019-01-24T04:24:53.853Z,-5.3
2019-01-24T04:25:53.851Z,-5.28
2019-01-24T04:26:53.919Z,-5.35
2019-01-24T04:27:53.993Z,-5.31
2019-01-24T04:28:53.911Z,-5.31
2019-01-24T04:29:54.173Z,-5.28
2019-01-24T04:30:54.093Z,-5.32
2019-01-24T04:31:54.089Z,-5.35
2019-01-24T04:32:55.833Z,-5.35
2019-01-24T04:33:54.512Z,-5.48
2019-01-24T04:34:55.539Z,-5.51
2019-01-24T04:35:54.119Z,-5.44
2019-01-24T04:36:53.889Z,-5.4
2019-01-24T04:37:53.823Z,-5.44
2019-01-24T04:38:53.804Z,-5.42
2019-01-24T04:39:53.869Z,-5.49
2019-01-24T04:40:53.820Z,-5.47
2019-01-24T04:41:53.863Z,-5.55
2019-01-24T04:42:53.818Z,-5.57
2019-01-24T04:43:53.841Z,-5.49
2019-01-24T04:45:53.857Z,-5.52
2019-01-24T04:46:53.948Z,-5.49
2019-01-24T04:47:54.134Z,-5.46
2019-01-24T04:48:53.834Z,-5.44
2019-01-24T04:49:54.338Z,-5.43
2019-01-24T04:50:53.787Z,-5.46
2019-01-24T04:51:53.851Z,-5.42
2019-01-24T04:52:53.820Z,-5.5
2019-01-24T04:53:53.875Z,-5.46
2019-01-24T04:54:54.246Z,-5.43
2019-01-24T04:55:53.826Z,-5.53
2019-01-24T04:56:53.875Z,-5.52
2019-01-24T04:57:55.305Z,-5.46
2019-01-24T04:58:53.795Z,-5.47
2019-01-24T04:59:54.243Z,-5.57
2019-01-24T05:00:54.115Z,-5.52
2019-01-24T05:01:53.894Z,-5.49
2019-01-24T05:02:54.158Z,-5.47
2019-01-24T05:03:53.833Z,-5.43
2019-01-24T05:04:53.803Z,-5.46
2019-01-24T05:05:53.845Z,-5.41
2019-01-24T05:06:53.807Z,-5.39
2019-01-24T05:07:54.046Z,-5.41
2019-01-24T05:08:53.849Z,-5.38
2019-01-24T05:09:54.142Z,-5.47
2019-01-24T05:10:53.875Z,-5.43
2019-01-24T05:11:53.836Z,-5.51
2019-01-24T05:12:53.911Z,-5.45
2019-01-24T05:13:54.260Z,-5.47
2019-01-24T05:14:54.179Z,-5.48
2019-01-24T05:15:53.826Z,-5.41
2019-01-24T05:16:55.367Z,-5.47
2019-01-24T05:17:53.825Z,-5.49
2019-01-24T05:18:54.210Z,-5.47
2019-01-24T05:19:54.504Z,-5.5
2019-01-24T05:20:53.849Z,-5.49
2019-01-24T05:21:53.933Z,-5.45
2019-01-24T05:22:54.275Z,-5.46
2019-01-24T05:23:54.263Z,-5.45
2019-01-24T05:24:54.024Z,-5.42
2019-01-24T05:25:54.393Z,-5.42
2019-01-24T05:26:54.055Z,-5.41
2019-01-24T05:27:53.998Z,-5.43
2019-01-24T05:28:54.287Z,-5.48
2019-01-24T05:29:53.902Z,-5.46
2019-01-24T05:30:54.184Z,-5.46
2019-01-24T05:31:53.711Z,-5.43
2019-01-24T05:32:55.671Z,-5.42
2019-01-24T05:33:53.915Z,-5.39
2019-01-24T05:34:54.400Z,-5.41
2019-01-24T05:35:54.134Z,-5.44
2019-01-24T05:36:53.876Z,-5.38
2019-01-24T05:37:54.634Z,-5.39
2019-01-24T05:38:53.814Z,-5.47
2019-01-24T05:39:53.927Z,-5.42
2019-01-24T05:40:53.896Z,-5.45
2019-01-24T05:41:53.761Z,-5.45
2019-01-24T05:42:53.879Z,-5.47
2019-01-24T05:43:53.897Z,-5.46
2019-01-24T05:44:54.623Z,-5.5
2019-01-24T05:45:53.712Z,-5.53
2019-01-24T05:46:53.951Z,-5.49
2019-01-24T05:47:53.763Z,-5.48
2019-01-24T05:48:53.907Z,-5.49
2019-01-24T05:49:53.809Z,-5.46
2019-01-24T05:50:53.862Z,-5.49
2019-01-24T05:51:54.379Z,-5.48
2019-01-24T05:52:53.848Z,-5.51
2019-01-24T05:53:53.702Z,-5.49
2019-01-24T05:54:54.158Z,-5.46
2019-01-24T05:55:53.698Z,-5.47
2019-01-24T05:56:53.807Z,-5.45
2019-01-24T05:57:54.013Z,-5.43
2019-01-24T05:58:53.859Z,-5.43
2019-01-24T05:59:53.873Z,-5.41
2019-01-24T06:00:55.414Z,-5.41
2019-01-24T06:01:53.704Z,-5.47
2019-01-24T06:02:53.953Z,-5.44
2019-01-24T06:03:53.704Z,-5.44
2019-01-24T06:04:54.056Z,-5.42
2019-01-24T06:05:53.708Z,-5.41
2019-01-24T06:06:53.742Z,-5.41
2019-01-24T06:07:53.976Z,-5.4
2019-01-24T06:08:55.610Z,-5.41
2019-01-24T06:09:53.664Z,-5.4
2019-01-24T06:10:53.820Z,-5.4
2019-01-24T06:11:54.000Z,-5.39
2019-01-24T06:12:55.480Z,-5.41
2019-01-24T06:13:53.764Z,-5.44
2019-01-24T06:14:53.877Z,-5.44
2019-01-24T06:15:54.639Z,-5.44
2019-01-24T06:16:55.346Z,-5.44
2019-01-24T06:17:53.714Z,-5.44
2019-01-24T06:18:55.222Z,-5.45
2019-01-24T06:19:53.820Z,-5.45
2019-01-24T06:20:55.023Z,-5.44
2019-01-24T06:21:53.675Z,-5.42
2019-01-24T06:22:53.724Z,-5.41
2019-01-24T06:23:53.681Z,-5.42
2019-01-24T06:24:53.865Z,-5.44
2019-01-24T06:25:53.726Z,-5.42
2019-01-24T06:26:53.808Z,-5.49
2019-01-24T06:27:54.014Z,-5.45
2019-01-24T06:28:53.638Z,-5.49
2019-01-24T06:29:53.694Z,-5.48
2019-01-24T06:30:56.644Z,-5.45
2019-01-24T06:31:53.611Z,-5.43
2019-01-24T06:32:53.698Z,-5.43
2019-01-24T06:33:53.699Z,-5.42
2019-01-24T06:34:53.838Z,-5.46
2019-01-24T06:35:53.688Z,-5.45
2019-01-24T06:36:54.435Z,-5.45
2019-01-24T06:37:53.742Z,-5.43
2019-01-24T06:38:53.658Z,-5.41
2019-01-24T06:39:53.638Z,-5.39
2019-01-24T06:40:53.701Z,-5.4
2019-01-24T06:41:53.696Z,-5.37
2019-01-24T06:42:54.069Z,-5.39
2019-01-24T06:43:53.713Z,-5.42
2019-01-24T06:44:53.679Z,-5.4
2019-01-24T06:45:53.785Z,-5.43
2019-01-24T06:46:53.726Z,-5.42
2019-01-24T06:47:53.727Z,-5.42
2019-01-24T06:48:53.754Z,-5.4
2019-01-24T06:49:53.958Z,-5.38
2019-01-24T06:50:53.652Z,-5.38
2019-01-24T06:51:55.260Z,-5.37
2019-01-24T06:52:55.374Z,-5.39
2019-01-24T06:53:53.803Z,-5.4
2019-01-24T06:54:54.172Z,-5.38
2019-01-24T06:55:53.857Z,-5.41
2019-01-24T06:56:53.888Z,-5.38
2019-01-24T06:57:53.658Z,-5.42
2019-01-24T06:58:53.624Z,-5.4
2019-01-24T06:59:54.306Z,-5.38
2019-01-24T07:00:54.606Z,-5.39
2019-01-24T07:01:54.059Z,-5.33
2019-01-24T07:02:54.871Z,-5.36
2019-01-24T07:03:53.915Z,-5.32
2019-01-24T07:04:53.816Z,-5.33
2019-01-24T07:05:55.783Z,-5.33
2019-01-24T07:06:53.628Z,-5.3
2019-01-24T07:07:53.626Z,-5.29
2019-01-24T07:08:53.721Z,-5.31
2019-01-24T07:09:53.610Z,-5.31
2019-01-24T07:10:53.805Z,-5.33
2019-01-24T07:11:53.808Z,-5.29
2019-01-24T07:12:53.651Z,-5.28
2019-01-24T07:13:53.905Z,-5.24
2019-01-24T07:14:53.559Z,-5.24
2019-01-24T07:15:53.680Z,-5.2
2019-01-24T07:16:53.678Z,-5.21
2019-01-24T07:17:53.874Z,-5.28
2019-01-24T07:18:54.013Z,-5.31
2019-01-24T07:19:53.686Z,-5.28
2019-01-24T07:20:53.654Z,-5.24
2019-01-24T07:21:54.886Z,-5.3
2019-01-24T07:22:53.581Z,-5.24
2019-01-24T07:23:53.864Z,-5.25
2019-01-24T07:24:53.531Z,-5.25
2019-01-24T07:25:54.303Z,-5.4
2019-01-24T07:26:53.566Z,-5.36
2019-01-24T07:27:54.844Z,-5.4
2019-01-24T07:28:53.549Z,-5.44
2019-01-24T07:29:54.384Z,-5.43
2019-01-24T07:30:53.678Z,-5.37
2019-01-24T07:31:53.687Z,-5.26
2019-01-24T07:32:53.828Z,-5.26
2019-01-24T07:33:53.731Z,-5.28
2019-01-24T07:34:53.556Z,-5.31
2019-01-24T07:35:53.753Z,-5.29
2019-01-24T07:36:54.277Z,-5.28
2019-01-24T07:37:53.540Z,-5.35
2019-01-24T07:38:53.548Z,-5.34
2019-01-24T07:39:53.669Z,-5.31
2019-01-24T07:40:53.596Z,-5.29
2019-01-24T07:41:53.680Z,-5.3
2019-01-24T07:42:53.677Z,-5.29
2019-01-24T07:43:53.786Z,-5.37
2019-01-24T07:44:53.794Z,-5.52
2019-01-24T07:45:53.582Z,-5.64
2019-01-24T07:46:54.370Z,-5.52
2019-01-24T07:47:53.725Z,-5.51
2019-01-24T07:48:53.668Z,-5.53
2019-01-24T07:49:53.819Z,-5.56
2019-01-24T07:50:53.545Z,-5.58
2019-01-24T07:51:53.778Z,-5.51
2019-01-24T07:52:53.951Z,-5.53
2019-01-24T07:53:53.711Z,-5.54
2019-01-24T07:54:53.567Z,-5.59
2019-01-24T07:55:53.576Z,-5.53
2019-01-24T07:56:53.768Z,-5.62
2019-01-24T07:57:53.536Z,-5.67
2019-01-24T07:58:55.008Z,-5.64
2019-01-24T07:59:53.532Z,-5.63
2019-01-24T08:00:53.741Z,-5.62
2019-01-24T08:01:53.750Z,-5.6
2019-01-24T08:02:53.652Z,-5.63
2019-01-24T08:03:53.653Z,-5.64
2019-01-24T08:04:53.534Z,-5.62
2019-01-24T08:05:53.771Z,-5.4
2019-01-24T08:06:53.523Z,-5.31
2019-01-24T08:07:53.497Z,-5.23
2019-01-24T08:08:53.535Z,-5.27
2019-01-24T08:09:53.502Z,-5.23
2019-01-24T08:10:53.652Z,-5.18
2019-01-24T08:11:53.559Z,-5.23
2019-01-24T08:12:53.488Z,-5.21
2019-01-24T08:13:53.524Z,-5.17
2019-01-24T08:14:53.635Z,-5.13
2019-01-24T08:15:53.520Z,-5.15
2019-01-24T08:16:53.525Z,-5.18
2019-01-24T08:17:53.506Z,-5.17
2019-01-24T08:18:53.507Z,-5.13
2019-01-24T08:19:53.530Z,-5.09
2019-01-24T08:20:53.495Z,-5.23
2019-01-24T08:21:53.728Z,-5.3
2019-01-24T08:22:53.507Z,-5.31
2019-01-24T08:23:53.509Z,-5.32
2019-01-24T08:24:53.497Z,-5.3
2019-01-24T08:25:53.807Z,-5.3
2019-01-24T08:26:53.540Z,-5.43
2019-01-24T08:27:55.280Z,-5.34
2019-01-24T08:28:53.530Z,-5.35
2019-01-24T08:29:55.955Z,-5.4
2019-01-24T08:30:54.109Z,-5.49
2019-01-24T08:31:53.534Z,-5.45
2019-01-24T08:32:53.749Z,-5.44
2019-01-24T08:33:53.846Z,-5.45
2019-01-24T08:34:53.662Z,-5.43
2019-01-24T08:35:53.594Z,-5.42
2019-01-24T08:36:53.424Z,-5.67
2019-01-24T08:37:53.475Z,-5.68
2019-01-24T08:38:59.969Z,-5.79
2019-01-24T08:39:53.503Z,-5.72
2019-01-24T08:40:53.757Z,-5.79
2019-01-24T08:41:55.146Z,-5.72
2019-01-24T08:42:53.641Z,-5.77
2019-01-24T08:43:53.712Z,-5.84
2019-01-24T08:44:53.419Z,-5.85
2019-01-24T08:45:53.556Z,-5.77
2019-01-24T08:46:53.464Z,-5.86
2019-01-24T08:47:53.446Z,-5.86
2019-01-24T08:48:54.267Z,-5.79
2019-01-24T08:49:53.657Z,-5.64
2019-01-24T08:50:53.392Z,-5.69
2019-01-24T08:51:53.558Z,-5.72
2019-01-24T08:52:53.633Z,-5.69
2019-01-24T08:53:53.492Z,-5.64
2019-01-24T08:54:53.770Z,-5.79
2019-01-24T08:55:53.699Z,-5.77
2019-01-24T08:56:53.581Z,-5.72
2019-01-24T08:57:54.062Z,-5.69
2019-01-24T08:58:55.292Z,-5.59
2019-01-24T08:59:53.500Z,-5.6
2019-01-24T09:00:53.432Z,-5.65
2019-01-24T09:01:53.537Z,-5.6
2019-01-24T09:02:53.550Z,-5.64
2019-01-24T09:03:53.815Z,-5.63
2019-01-24T09:04:53.560Z,-5.59
2019-01-24T09:05:53.939Z,-5.52
2019-01-24T09:06:53.729Z,-5.55
2019-01-24T09:07:53.523Z,-5.53
2019-01-24T09:08:53.440Z,-5.55
2019-01-24T09:09:53.773Z,-5.51
2019-01-24T09:10:53.555Z,-5.47
2019-01-24T09:11:53.654Z,-5.46
2019-01-24T09:12:53.551Z,-5.58
2019-01-24T09:13:54.012Z,-5.69
2019-01-24T09:14:53.734Z,-5.62
2019-01-24T09:15:53.715Z,-5.6
2019-01-24T09:16:53.429Z,-5.52
2019-01-24T09:17:53.517Z,-5.53
2019-01-24T09:18:53.363Z,-5.51
2019-01-24T09:19:54.330Z,-5.48
2019-01-24T09:20:53.643Z,-5.49
2019-01-24T09:21:53.561Z,-5.45
2019-01-24T09:22:55.815Z,-5.52
2019-01-24T09:23:53.490Z,-5.44
2019-01-24T09:24:53.368Z,-5.31
2019-01-24T09:25:53.615Z,-5.38
2019-01-24T09:26:53.673Z,-5.35
2019-01-24T09:27:53.345Z,-5.45
2019-01-24T09:28:55.187Z,-5.44
2019-01-24T09:29:53.383Z,-5.4
2019-01-24T09:30:54.942Z,-5.35
2019-01-24T09:31:53.457Z,-5.33
2019-01-24T09:32:53.438Z,-5.26
2019-01-24T09:33:53.464Z,-5.23
2019-01-24T09:34:53.499Z,-5.2
2019-01-24T09:35:53.346Z,-5.22
2019-01-24T09:36:53.511Z,-5.4
2019-01-24T09:37:53.428Z,-5.35
2019-01-24T09:38:55.166Z,-5.33
2019-01-24T09:39:55.167Z,-5.33
2019-01-24T09:40:53.783Z,-5.3
2019-01-24T09:41:53.646Z,-5.37
2019-01-24T09:42:53.558Z,-5.27
2019-01-24T09:43:53.510Z,-5.29
2019-01-24T09:44:53.422Z,-5.21
2019-01-24T09:45:53.607Z,-5.23
2019-01-24T09:46:53.450Z,-5.23
2019-01-24T09:47:53.553Z,-5.3
2019-01-24T09:48:53.420Z,-5.26
2019-01-24T09:49:53.418Z,-5.24
2019-01-24T09:50:53.312Z,-5.22
2019-01-24T09:51:53.448Z,-5.22
2019-01-24T09:52:53.524Z,-5.2
2019-01-24T09:53:53.274Z,-5.11
2019-01-24T09:54:53.379Z,-5.06
2019-01-24T09:55:53.290Z,-5.02
2019-01-24T09:56:53.310Z,-5.05
2019-01-24T09:57:53.380Z,-4.98
2019-01-24T09:58:53.436Z,-5
2019-01-24T09:59:54.221Z,-5.12
2019-01-24T10:00:53.259Z,-5.1
2019-01-24T10:01:53.284Z,-5.06
2019-01-24T10:02:53.491Z,-5.05
2019-01-24T10:03:53.534Z,-5.09
2019-01-24T10:04:53.318Z,-5.05
2019-01-24T10:05:53.290Z,-5.06
2019-01-24T10:06:53.910Z,-5.1
2019-01-24T10:07:55.036Z,-5.18
2019-01-24T10:08:54.481Z,-5.15
2019-01-24T10:09:53.371Z,-5.15
2019-01-24T10:10:53.371Z,-5.15
2019-01-24T10:11:54.837Z,-5.08
2019-01-24T10:13:00.040Z,-5.18
2019-01-24T10:13:53.444Z,-5.18
2019-01-24T10:14:53.545Z,-5.33
2019-01-24T10:15:53.527Z,-5.25
2019-01-24T10:16:53.420Z,-5.14
2019-01-24T10:17:53.738Z,-5.13
2019-01-24T10:18:53.249Z,-5.11
2019-01-24T10:19:53.502Z,-5.13
2019-01-24T10:20:53.316Z,-5.16
2019-01-24T10:21:53.812Z,-5.27
2019-01-24T10:22:53.834Z,-5.22
2019-01-24T10:23:53.417Z,-5.21
2019-01-24T10:26:53.830Z,-5.06
2019-01-24T10:27:54.715Z,-5.08
2019-01-24T10:28:54.373Z,-5.18
2019-01-24T10:29:53.601Z,-5.28
2019-01-24T10:30:56.589Z,-5.3
2019-01-24T10:32:54.479Z,-5.39
2019-01-24T10:33:54.275Z,-5.32
2019-01-24T10:34:53.319Z,-5.36
2019-01-24T10:35:53.271Z,-5.36
2019-01-24T10:36:55.179Z,-5.25
2019-01-24T10:37:54.590Z,-5.28
2019-01-24T10:38:53.465Z,-5.38
2019-01-24T10:39:55.362Z,-5.36
2019-01-24T10:40:53.543Z,-5.31
2019-01-24T10:41:53.541Z,-5.21
2019-01-24T10:42:53.445Z,-5.17
2019-01-24T10:44:01.626Z,-5.21
2019-01-24T10:44:53.379Z,-5.32
2019-01-24T10:45:53.486Z,-5.35
2019-01-24T10:46:53.708Z,-5.35
2019-01-24T10:47:56.283Z,-5.39
2019-01-24T10:49:00.631Z,-5.44
2019-01-24T10:49:55.087Z,-5.39
2019-01-24T10:51:53.421Z,-5.45
2019-01-24T10:52:53.752Z,-5.39
2019-01-24T10:53:54.756Z,-5.27
2019-01-24T10:54:53.516Z,-5.45
2019-01-24T10:55:54.982Z,-5.45
2019-01-24T10:56:55.954Z,-5.53
2019-01-24T10:57:54.171Z,-5.44
2019-01-24T10:58:53.260Z,-5.35
2019-01-24T10:59:53.369Z,-5.45
2019-01-24T11:00:53.404Z,-5.42
2019-01-24T11:01:53.276Z,-5.37
2019-01-24T11:02:53.321Z,-5.37
2019-01-24T11:03:53.245Z,-5.35
2019-01-24T11:04:53.428Z,-5.46
2019-01-24T11:05:53.344Z,-5.38
2019-01-24T11:06:54.271Z,-5.32
2019-01-24T11:07:53.324Z,-5.28
2019-01-24T11:08:53.439Z,-5.28
2019-01-24T11:09:53.468Z,-5.26
2019-01-24T11:10:53.296Z,-5.2
2019-01-24T11:11:53.789Z,-5.22
2019-01-24T11:12:53.241Z,-5.21
2019-01-24T11:13:53.264Z,-5.14
2019-01-24T11:14:53.535Z,-5.11
2019-01-24T11:15:53.336Z,-5.1
2019-01-24T11:16:53.541Z,-5.12
2019-01-24T11:17:55.034Z,-5.13
2019-01-24T11:18:53.421Z,-5.08
2019-01-24T11:19:53.220Z,-5.07
2019-01-24T11:20:53.385Z,-5.18
2019-01-24T11:21:53.312Z,-5.17
2019-01-24T11:22:53.314Z,-5.17
2019-01-24T11:23:53.460Z,-5.29
2019-01-24T11:25:53.451Z,-5.19
2019-01-24T11:26:53.307Z,-5.12
2019-01-24T11:27:53.215Z,-5.21
2019-01-24T11:28:53.218Z,-5.14
2019-01-24T11:29:53.173Z,-5.11
2019-01-24T11:30:53.407Z,-5.22
2019-01-24T11:31:53.156Z,-5.16
2019-01-24T11:32:53.177Z,-5.12
2019-01-24T11:33:53.265Z,-5.11
2019-01-24T11:35:53.203Z,-4.92
2019-01-24T11:36:57.608Z,-5
2019-01-24T11:37:54.260Z,-5.01
2019-01-24T11:38:56.288Z,-5.09
2019-01-24T11:39:53.299Z,-5.06
2019-01-24T11:40:53.350Z,-5.03
2019-01-24T11:41:53.174Z,-5.07
2019-01-24T11:42:53.354Z,-5.07
2019-01-24T11:43:53.171Z,-4.99
2019-01-24T11:44:53.171Z,-4.99
2019-01-24T11:45:53.578Z,-5.01
2019-01-24T11:46:53.175Z,-5.04
2019-01-24T11:47:53.442Z,-5.11
2019-01-24T11:48:53.538Z,-5.06
2019-01-24T11:49:53.156Z,-5.05
2019-01-24T11:50:53.214Z,-5.07
2019-01-24T11:51:53.590Z,-5.05
2019-01-24T11:52:53.226Z,-4.98
2019-01-24T11:53:53.519Z,-5.02
2019-01-24T11:54:53.185Z,-5.01
2019-01-24T11:55:53.112Z,-5.15
2019-01-24T11:56:53.480Z,-4.98
2019-01-24T11:57:53.248Z,-5.07
2019-01-24T11:58:53.305Z,-5.15
2019-01-24T11:59:53.142Z,-5.09
2019-01-24T12:00:53.312Z,-5.03
2019-01-24T12:01:53.230Z,-5.02
2019-01-24T12:02:53.328Z,-4.93
2019-01-24T12:03:53.133Z,-4.92
2019-01-24T12:04:53.220Z,-4.89
2019-01-24T12:05:53.373Z,-4.94
2019-01-24T12:06:53.271Z,-4.9
2019-01-24T12:07:53.286Z,-4.89
2019-01-24T12:08:53.073Z,-4.83
2019-01-24T12:09:53.189Z,-4.83
2019-01-24T12:10:53.367Z,-4.85
2019-01-24T12:11:53.931Z,-4.87
2019-01-24T12:12:53.284Z,-4.91
2019-01-24T12:13:53.197Z,-4.93
2019-01-24T12:14:53.405Z,-5.05
2019-01-24T12:15:53.153Z,-4.98
2019-01-24T12:16:53.056Z,-4.93
2019-01-24T12:17:53.075Z,-4.94
2019-01-24T12:18:53.247Z,-4.97
2019-01-24T12:19:54.899Z,-4.96
2019-01-24T12:20:53.147Z,-5.11
2019-01-24T12:21:53.616Z,-5.04
2019-01-24T12:22:53.403Z,-5.09
2019-01-24T12:23:53.667Z,-5.02
2019-01-24T12:24:53.061Z,-5.11
2019-01-24T12:25:53.275Z,-5.22
2019-01-24T12:26:53.418Z,-5.08
2019-01-24T12:27:54.005Z,-5.09
2019-01-24T12:28:53.111Z,-5.09
2019-01-24T12:29:53.181Z,-5.03
2019-01-24T12:30:53.189Z,-5.14
2019-01-24T12:31:52.823Z,-5.08
2019-01-24T12:32:53.525Z,-5.06
2019-01-24T12:33:53.609Z,-5.09
2019-01-24T12:34:53.077Z,-5.23
2019-01-24T12:35:53.326Z,-5.19
2019-01-24T12:36:56.834Z,-5.27
2019-01-24T12:37:53.093Z,-5.22
2019-01-24T12:38:53.785Z,-5.13
2019-01-24T12:39:53.405Z,-5.07
2019-01-24T12:40:53.350Z,-5.18
2019-01-24T12:41:53.042Z,-5.13
2019-01-24T12:42:53.486Z,-5.1
2019-01-24T12:43:53.016Z,-5.27
2019-01-24T12:44:53.015Z,-5.28
2019-01-24T12:45:53.706Z,-5.24
2019-01-24T12:46:53.302Z,-5.14
2019-01-24T12:47:53.343Z,-5.23
2019-01-24T12:48:53.426Z,-5.27
2019-01-24T12:49:53.084Z,-5.19
2019-01-24T12:50:53.432Z,-5.08
2019-01-24T12:51:53.251Z,-5.19
2019-01-24T12:52:53.089Z,-5.11
2019-01-24T12:53:53.035Z,-5.06
2019-01-24T12:54:52.974Z,-5.15
2019-01-24T12:55:53.074Z,-5.2
2019-01-24T12:56:53.024Z,-5.2
2019-01-24T12:57:53.290Z,-5.15
2019-01-24T12:59:07.898Z,-5.09
2019-01-24T12:59:54.226Z,-5.21
2019-01-24T13:00:53.302Z,-5.21
2019-01-24T13:01:53.208Z,-5.23
2019-01-24T13:02:54.858Z,-5.19